Terminal Aerodrome Forecast
Issued by NWS

Home | Current Version | Previous Version | Text Only | Print | Product List | Glossary On
Versions: 1 2 3 4 5 6 7 8 9 10 11 12 13 14 15 16 17 18 19 20
000
FTUS46 KLOX 031400 AAB
TAFLGB
TAF AMD
KLGB 031411Z 0314/0412 VRB03KT P6SM OVC020
     FM032000 20006KT P6SM SCT025
     FM032200 28012KT P6SM SKC
     FM040400 VRB03KT P6SM OVC015
     FM041000 VRB03KT P6SM OVC025=

USA.gov is the U.S. government's official web portal to all federal, state and local government web resources and services.